Azpeitia, Spain
Current Conditions -  °F | °C
As of 6:30 AM on Tuesday 27 Jan 2015 (Local Time) from LESO Reporting Station
Moderate Rain Moderate Rain  
Wind Chill: 52°   Ceiling: 700
Heat Index: 52°   Visibility: 2.1mi
Dew Point: 50°   Wind: 6mph
Humidity: 94%   Direction: 340°NNW
Pressure: 30.42"   Gusts: 17mph
Location:  43.18°N, 2.27°W
Report Text: LESO 270530Z 34005G15KT 270V040 3500 RA BKN007 BKN015 11/10 Q1030
Loading
Personal Weather Stations






























Interactive Weather Map New forecast layout! Learn more

10-Day Weather Forecast

Advertisements
Track Severe Weather on mobile